createdAt,value
2023-04-20T00:00:35.824Z,7.29
2023-04-20T00:01:40.173Z,7.23
2023-04-20T00:02:44.830Z,7.21
2023-04-20T00:03:49.507Z,7.21
2023-04-20T00:04:53.434Z,7.26
2023-04-20T00:05:57.504Z,7.31
2023-04-20T00:07:01.888Z,7.37
2023-04-20T00:08:06.464Z,7.39
2023-04-20T00:09:10.520Z,7.43
2023-04-20T00:10:15.118Z,7.41
2023-04-20T00:11:19.468Z,7.45
2023-04-20T00:12:23.801Z,7.42
2023-04-20T00:13:28.147Z,7.49
2023-04-20T00:14:32.476Z,7.50
2023-04-20T00:15:36.551Z,7.42
2023-04-20T00:16:41.190Z,7.39
2023-04-20T00:17:45.496Z,7.42
2023-04-20T00:18:49.553Z,7.40
2023-04-20T00:19:54.174Z,7.45
2023-04-20T00:20:58.509Z,7.42
2023-04-20T00:22:02.823Z,7.46
2023-04-20T00:23:08.427Z,7.47
2023-04-20T00:24:12.260Z,7.48
2023-04-20T00:25:16.836Z,7.48
2023-04-20T00:26:20.948Z,7.47
2023-04-20T00:27:25.280Z,7.49
2023-04-20T00:28:29.854Z,7.49
2023-04-20T00:29:34.202Z,7.56
2023-04-20T00:30:38.808Z,7.50
2023-04-20T00:31:42.614Z,7.47
2023-04-20T00:32:47.318Z,7.45
2023-04-20T00:33:51.573Z,7.43
2023-04-20T00:34:55.882Z,7.48
2023-04-20T00:36:00.028Z,7.43
2023-04-20T00:37:04.314Z,7.28
2023-04-20T00:38:08.902Z,7.36
2023-04-20T00:39:13.244Z,7.32
2023-04-20T00:40:17.579Z,7.24
2023-04-20T00:41:21.937Z,7.22
2023-04-20T00:42:25.998Z,7.10
2023-04-20T00:43:30.343Z,7.16
2023-04-20T00:44:34.665Z,7.22
2023-04-20T00:45:39.291Z,7.25
2023-04-20T00:46:43.711Z,7.21
2023-04-20T00:47:48.205Z,7.14
2023-04-20T00:48:52.545Z,7.03
2023-04-20T00:49:56.628Z,7.03
2023-04-20T00:51:00.968Z,7.04
2023-04-20T00:52:05.028Z,7.09
2023-04-20T00:53:10.625Z,7.08
2023-04-20T00:54:14.947Z,7.00
2023-04-20T00:55:19.033Z,7.02
2023-04-20T00:56:23.891Z,7.01
2023-04-20T00:57:27.985Z,7.01
2023-04-20T00:58:32.289Z,6.96
2023-04-20T00:59:36.631Z,6.97
2023-04-20T01:00:40.981Z,7.00
2023-04-20T01:01:45.124Z,7.04
2023-04-20T01:02:49.747Z,6.96
2023-04-20T01:03:54.202Z,6.98
2023-04-20T01:04:58.623Z,7.00
2023-04-20T01:06:02.942Z,7.03
2023-04-20T01:07:06.738Z,6.99
2023-04-20T01:08:11.337Z,6.94
2023-04-20T01:09:16.091Z,6.88
2023-04-20T01:10:19.741Z,6.88
2023-04-20T01:11:24.347Z,6.89
2023-04-20T01:12:28.669Z,6.91
2023-04-20T01:13:33.013Z,6.80
2023-04-20T01:14:37.626Z,6.75
2023-04-20T01:15:41.967Z,6.61
2023-04-20T01:16:45.079Z,6.63
2023-04-20T01:17:50.140Z,6.53
2023-04-20T01:18:54.703Z,6.56
2023-04-20T01:19:58.780Z,6.61
2023-04-20T01:21:03.157Z,6.55
2023-04-20T01:22:07.736Z,6.57
2023-04-20T01:23:13.337Z,6.56
2023-04-20T01:24:17.436Z,6.55
2023-04-20T01:25:21.497Z,6.56
2023-04-20T01:26:26.117Z,6.57
2023-04-20T01:27:30.445Z,6.60
2023-04-20T01:28:34.771Z,6.60
2023-04-20T01:29:38.978Z,6.64
2023-04-20T01:30:43.311Z,6.69
2023-04-20T01:31:47.322Z,6.75
2023-04-20T01:32:49.257Z,6.80
2023-04-20T01:33:54.004Z,6.85
2023-04-20T01:34:58.102Z,6.84
2023-04-20T01:36:02.177Z,6.75
2023-04-20T01:37:06.872Z,6.71
2023-04-20T01:38:11.124Z,6.73
2023-04-20T01:39:15.402Z,6.69
2023-04-20T01:40:19.791Z,6.60
2023-04-20T01:41:24.133Z,6.58
2023-04-20T01:42:28.456Z,6.59
2023-04-20T01:43:32.806Z,6.58
2023-04-20T01:44:37.157Z,6.61
2023-04-20T01:45:41.499Z,6.65
2023-04-20T01:46:45.622Z,6.62
2023-04-20T01:47:50.201Z,6.51
2023-04-20T01:48:54.487Z,6.54
2023-04-20T01:49:58.857Z,6.59
2023-04-20T01:51:03.180Z,6.54
2023-04-20T01:52:07.527Z,6.48
2023-04-20T01:53:11.401Z,6.40
2023-04-20T01:54:12.221Z,6.44
2023-04-20T01:55:17.859Z,6.35
2023-04-20T01:56:20.382Z,6.39
2023-04-20T01:57:24.714Z,6.34
2023-04-20T01:58:29.338Z,6.27
2023-04-20T01:59:33.395Z,6.33
2023-04-20T02:00:58.642Z,6.35
2023-04-20T02:01:42.325Z,6.27
2023-04-20T02:02:46.824Z,6.33
2023-04-20T02:03:51.504Z,6.30
2023-04-20T02:04:55.409Z,6.33
2023-04-20T02:05:59.715Z,6.36
2023-04-20T02:07:04.057Z,6.37
2023-04-20T02:08:08.132Z,6.34
2023-04-20T02:09:12.490Z,6.25
2023-04-20T02:10:16.818Z,6.21
2023-04-20T02:11:21.160Z,6.29
2023-04-20T02:12:25.991Z,6.24
2023-04-20T02:13:30.110Z,6.25
2023-04-20T02:14:34.447Z,6.28
2023-04-20T02:15:38.538Z,6.16
2023-04-20T02:16:49.692Z,6.16
2023-04-20T02:17:47.465Z,6.24
2023-04-20T02:18:51.503Z,6.27
2023-04-20T02:19:56.118Z,6.30
2023-04-20T02:21:00.448Z,6.32
2023-04-20T02:22:05.032Z,6.34
2023-04-20T02:23:09.127Z,6.31
2023-04-20T02:24:09.775Z,6.33
2023-04-20T02:25:13.877Z,6.28
2023-04-20T02:26:18.199Z,6.26
2023-04-20T02:27:22.789Z,6.21
2023-04-20T02:28:27.136Z,6.24
2023-04-20T02:29:31.206Z,6.25
2023-04-20T02:30:35.807Z,6.27
2023-04-20T02:31:40.336Z,6.19
2023-04-20T02:32:44.542Z,6.14
2023-04-20T02:33:51.714Z,6.01
2023-04-20T02:34:51.347Z,6.10
2023-04-20T02:35:55.457Z,6.06
2023-04-20T02:36:59.546Z,6.06
2023-04-20T02:38:03.847Z,6.08
2023-04-20T02:39:08.455Z,6.09
2023-04-20T02:40:12.528Z,6.12
2023-04-20T02:41:17.173Z,6.17
2023-04-20T02:42:21.193Z,6.23
2023-04-20T02:43:26.055Z,6.27
2023-04-20T02:44:30.390Z,6.25
2023-04-20T02:45:34.498Z,6.29
2023-04-20T02:46:38.596Z,6.31
2023-04-20T02:47:43.177Z,6.34
2023-04-20T02:48:47.477Z,6.38
2023-04-20T02:49:51.560Z,6.33
2023-04-20T02:50:55.902Z,6.34
2023-04-20T02:52:00.500Z,6.34
2023-04-20T02:53:04.844Z,6.30
2023-04-20T02:54:04.969Z,6.35
2023-04-20T02:55:09.313Z,6.37
2023-04-20T02:56:13.392Z,6.37
2023-04-20T02:57:17.740Z,6.41
2023-04-20T02:58:22.351Z,6.46
2023-04-20T02:59:26.647Z,6.50
2023-04-20T03:00:30.999Z,6.48
2023-04-20T03:01:35.121Z,6.49
2023-04-20T03:02:39.579Z,6.46
2023-04-20T03:03:52.564Z,6.46
2023-04-20T03:04:49.049Z,6.45
2023-04-20T03:05:52.784Z,6.49
2023-04-20T03:06:57.145Z,6.45
2023-04-20T03:08:01.760Z,6.40
2023-04-20T03:09:06.074Z,6.16
2023-04-20T03:10:10.416Z,6.19
2023-04-20T03:11:14.774Z,6.22
2023-04-20T03:12:19.099Z,6.19
2023-04-20T03:13:23.457Z,6.19
2023-04-20T03:14:27.786Z,6.15
2023-04-20T03:15:32.112Z,6.16
2023-04-20T03:16:36.522Z,6.15
2023-04-20T03:17:40.890Z,5.95
2023-04-20T03:18:44.929Z,5.82
2023-04-20T03:19:52.504Z,5.90
2023-04-20T03:20:51.358Z,6.02
2023-04-20T03:21:55.720Z,6.04
2023-04-20T03:23:00.311Z,6.01
2023-04-20T03:24:00.168Z,6.07
2023-04-20T03:25:05.024Z,6.13
2023-04-20T03:26:09.098Z,6.16
2023-04-20T03:27:13.186Z,6.18
2023-04-20T03:28:17.782Z,6.25
2023-04-20T03:29:21.877Z,6.24
2023-04-20T03:30:26.451Z,6.30
2023-04-20T03:31:30.571Z,6.31
2023-04-20T03:32:35.150Z,6.33
2023-04-20T03:33:39.206Z,6.35
2023-04-20T03:34:44.038Z,6.38
2023-04-20T03:35:48.411Z,6.42
2023-04-20T03:36:52.237Z,6.36
2023-04-20T03:37:56.871Z,6.41
2023-04-20T03:39:01.225Z,6.44
2023-04-20T03:40:05.260Z,6.41
2023-04-20T03:41:09.599Z,6.44
2023-04-20T03:42:14.190Z,6.39
2023-04-20T03:43:18.513Z,6.30
2023-04-20T03:44:23.106Z,6.32
2023-04-20T03:45:27.008Z,6.35
2023-04-20T03:46:31.290Z,6.42
2023-04-20T03:47:35.921Z,6.42
2023-04-20T03:48:39.961Z,6.39
2023-04-20T03:49:44.285Z,6.39
2023-04-20T03:50:48.626Z,6.41
2023-04-20T03:51:53.206Z,6.44
2023-04-20T03:52:57.805Z,6.45
2023-04-20T03:53:57.675Z,6.43
2023-04-20T03:55:02.253Z,6.38
2023-04-20T03:56:06.574Z,6.35
2023-04-20T03:57:10.418Z,6.14
2023-04-20T03:58:14.747Z,6.00
2023-04-20T03:59:19.427Z,6.09
2023-04-20T04:00:23.685Z,6.00
2023-04-20T04:01:28.078Z,5.87
2023-04-20T04:02:32.212Z,5.83
2023-04-20T04:03:37.157Z,5.76
2023-04-20T04:04:43.846Z,5.71
2023-04-20T04:05:43.447Z,5.70
2023-04-20T04:06:54.051Z,5.73
2023-04-20T04:07:51.897Z,5.79
2023-04-20T04:08:55.974Z,5.77
2023-04-20T04:10:00.639Z,5.82
2023-04-20T04:11:04.928Z,5.79
2023-04-20T04:12:09.022Z,5.81
2023-04-20T04:13:13.599Z,5.79
2023-04-20T04:14:18.205Z,5.65
2023-04-20T04:15:22.541Z,5.68
2023-04-20T04:16:26.438Z,5.70
2023-04-20T04:17:30.776Z,5.68
2023-04-20T04:18:35.307Z,5.60
2023-04-20T04:19:39.389Z,5.61
2023-04-20T04:20:43.737Z,5.76
2023-04-20T04:21:48.349Z,5.88
2023-04-20T04:22:52.680Z,5.91
2023-04-20T04:23:52.656Z,5.77
2023-04-20T04:24:56.958Z,5.69
2023-04-20T04:26:01.819Z,5.59
2023-04-20T04:27:05.884Z,5.65
2023-04-20T04:28:10.228Z,5.72
2023-04-20T04:29:14.573Z,5.77
2023-04-20T04:30:18.930Z,5.84
2023-04-20T04:31:23.015Z,5.88
2023-04-20T04:32:27.336Z,5.86
2023-04-20T04:33:31.967Z,5.88
2023-04-20T04:34:36.550Z,5.70
2023-04-20T04:35:40.890Z,5.55
2023-04-20T04:36:44.971Z,5.26
2023-04-20T04:37:49.022Z,5.31
2023-04-20T04:38:53.626Z,5.23
2023-04-20T04:39:57.727Z,5.18
2023-04-20T04:41:02.308Z,5.22
2023-04-20T04:42:06.636Z,5.20
2023-04-20T04:43:10.961Z,5.25
2023-04-20T04:44:15.316Z,5.31
2023-04-20T04:45:19.635Z,5.39
2023-04-20T04:46:24.002Z,5.38
2023-04-20T04:47:28.113Z,5.28
2023-04-20T04:48:32.437Z,5.32
2023-04-20T04:49:36.869Z,5.37
2023-04-20T04:50:41.356Z,5.44
2023-04-20T04:51:45.686Z,5.53
2023-04-20T04:52:50.034Z,5.58
2023-04-20T04:53:49.973Z,5.60
2023-04-20T04:54:54.578Z,5.64
2023-04-20T04:55:59.145Z,5.69
2023-04-20T04:57:02.984Z,5.80
2023-04-20T04:58:07.329Z,5.79
2023-04-20T04:59:11.663Z,5.78
2023-04-20T05:00:16.019Z,5.64
2023-04-20T05:01:20.353Z,5.62
2023-04-20T05:02:24.900Z,5.74
2023-04-20T05:03:29.128Z,5.79
2023-04-20T05:04:30.964Z,5.88
2023-04-20T05:05:38.541Z,5.81
2023-04-20T05:06:49.273Z,5.81
2023-04-20T05:07:46.877Z,5.91
2023-04-20T05:08:51.765Z,5.89
2023-04-20T05:09:55.301Z,5.82
2023-04-20T05:11:00.442Z,5.85
2023-04-20T05:12:04.765Z,5.89
2023-04-20T05:13:09.370Z,5.96
2023-04-20T05:14:13.691Z,6.03
2023-04-20T05:15:18.052Z,6.08
2023-04-20T05:16:22.446Z,6.19
2023-04-20T05:17:26.484Z,6.26
2023-04-20T05:18:30.795Z,6.29
2023-04-20T05:19:35.408Z,6.26
2023-04-20T05:20:39.718Z,6.15
2023-04-20T05:21:43.876Z,6.19
2023-04-20T05:22:48.643Z,6.20
2023-04-20T05:23:49.361Z,6.24
2023-04-20T05:24:53.406Z,6.30
2023-04-20T05:25:57.482Z,6.13
2023-04-20T05:27:01.847Z,6.10
2023-04-20T05:28:06.427Z,6.15
2023-04-20T05:29:10.768Z,6.14
2023-04-20T05:30:20.763Z,6.15
2023-04-20T05:31:19.480Z,5.99
2023-04-20T05:32:23.532Z,5.99
2023-04-20T05:33:28.360Z,5.96
2023-04-20T05:34:32.727Z,5.97
2023-04-20T05:35:36.547Z,6.06
2023-04-20T05:36:41.119Z,5.99
2023-04-20T05:37:53.431Z,5.90
2023-04-20T05:38:49.821Z,5.86
2023-04-20T05:39:53.888Z,5.91
2023-04-20T05:40:58.220Z,6.04
2023-04-20T05:42:02.830Z,5.90
2023-04-20T05:43:07.156Z,5.81
2023-04-20T05:44:11.237Z,5.72
2023-04-20T05:45:15.820Z,5.72
2023-04-20T05:46:19.550Z,5.64
2023-04-20T05:47:21.874Z,5.62
2023-04-20T05:48:27.859Z,5.45
2023-04-20T05:49:30.256Z,5.43
2023-04-20T05:50:34.603Z,5.44
2023-04-20T05:51:38.694Z,5.43
2023-04-20T05:52:42.417Z,5.49
2023-04-20T05:53:45.543Z,5.53
2023-04-20T05:54:50.173Z,5.48
2023-04-20T05:55:53.994Z,5.56
2023-04-20T05:56:58.560Z,5.52
2023-04-20T05:58:02.913Z,5.60
2023-04-20T05:59:07.233Z,5.57
2023-04-20T06:00:11.583Z,5.53
2023-04-20T06:01:15.936Z,5.51
2023-04-20T06:02:20.373Z,5.23
2023-04-20T06:03:24.834Z,5.31
2023-04-20T06:04:29.396Z,5.43
2023-04-20T06:05:33.166Z,5.52
2023-04-20T06:06:37.620Z,5.57
2023-04-20T06:07:41.971Z,5.57
2023-04-20T06:08:54.185Z,5.54
2023-04-20T06:09:50.651Z,5.52
2023-04-20T06:10:54.730Z,5.50
2023-04-20T06:11:59.604Z,5.60
2023-04-20T06:13:03.917Z,5.70
2023-04-20T06:14:08.018Z,5.78
2023-04-20T06:15:12.358Z,5.87
2023-04-20T06:16:16.469Z,5.80
2023-04-20T06:17:21.171Z,5.72
2023-04-20T06:18:25.094Z,5.71
2023-04-20T06:19:29.698Z,5.80
2023-04-20T06:20:34.090Z,5.86
2023-04-20T06:21:38.637Z,5.97
2023-04-20T06:22:42.958Z,5.92
2023-04-20T06:23:43.135Z,5.90
2023-04-20T06:24:47.483Z,5.93
2023-04-20T06:25:51.588Z,5.89
2023-04-20T06:26:55.901Z,5.84
2023-04-20T06:27:59.969Z,5.77
2023-04-20T06:29:04.598Z,5.74
2023-04-20T06:30:08.632Z,5.71
2023-04-20T06:31:13.271Z,5.73
2023-04-20T06:32:17.580Z,5.74
2023-04-20T06:33:22.176Z,5.58
2023-04-20T06:34:26.271Z,5.63
2023-04-20T06:35:30.363Z,5.66
2023-04-20T06:36:34.704Z,5.77
2023-04-20T06:37:39.306Z,5.84
2023-04-20T06:38:43.375Z,5.83
2023-04-20T06:39:47.722Z,5.86
2023-04-20T06:40:52.436Z,5.67
2023-04-20T06:41:56.650Z,5.65
2023-04-20T06:43:01.249Z,5.60
2023-04-20T06:44:05.332Z,5.65
2023-04-20T06:45:09.437Z,5.58
2023-04-20T06:46:13.826Z,5.59
2023-04-20T06:47:18.359Z,5.67
2023-04-20T06:48:30.665Z,5.70
2023-04-20T06:49:26.772Z,5.77
2023-04-20T06:50:31.372Z,5.90
2023-04-20T06:51:35.739Z,6.10
2023-04-20T06:52:40.072Z,6.30
2023-04-20T06:53:40.478Z,6.46
2023-04-20T06:54:44.548Z,6.55
2023-04-20T06:55:48.635Z,6.57
2023-04-20T06:57:01.056Z,6.64
2023-04-20T06:57:57.545Z,6.57
2023-04-20T06:59:01.644Z,6.52
2023-04-20T07:00:06.247Z,6.57
2023-04-20T07:01:10.613Z,6.82
2023-04-20T07:02:15.102Z,7.06
2023-04-20T07:03:19.611Z,7.13
2023-04-20T07:04:23.374Z,7.19
2023-04-20T07:05:27.679Z,7.13
2023-04-20T07:06:32.272Z,7.30
2023-04-20T07:07:36.356Z,7.42
2023-04-20T07:08:40.986Z,7.67
2023-04-20T07:09:45.033Z,7.85
2023-04-20T07:10:49.398Z,7.70
2023-04-20T07:11:53.984Z,7.14
2023-04-20T07:12:58.424Z,7.20
2023-04-20T07:14:02.656Z,7.05
2023-04-20T07:15:07.042Z,7.21
2023-04-20T07:16:11.169Z,7.45
2023-04-20T07:17:15.692Z,7.35
2023-04-20T07:18:20.015Z,7.54
2023-04-20T07:19:24.368Z,7.60
2023-04-20T07:20:28.978Z,7.60
2023-04-20T07:21:33.039Z,7.68
2023-04-20T07:22:37.126Z,7.70
2023-04-20T07:23:44.774Z,7.76
2023-04-20T07:24:47.070Z,7.82
2023-04-20T07:25:51.156Z,7.77
2023-04-20T07:26:55.766Z,7.86
2023-04-20T07:28:00.163Z,7.72
2023-04-20T07:29:04.843Z,7.54
2023-04-20T07:30:09.118Z,7.42
2023-04-20T07:31:13.104Z,7.25
2023-04-20T07:32:17.505Z,7.36
2023-04-20T07:33:21.522Z,7.39
2023-04-20T07:34:26.118Z,7.22
2023-04-20T07:35:30.462Z,7.31
2023-04-20T07:36:34.568Z,7.27
2023-04-20T07:37:38.893Z,7.12
2023-04-20T07:38:43.518Z,7.12
2023-04-20T07:39:47.879Z,7.33
2023-04-20T07:40:52.178Z,7.17
2023-04-20T07:41:59.067Z,7.51
2023-04-20T07:43:00.532Z,7.51
2023-04-20T07:44:02.788Z,7.66
2023-04-20T07:45:07.170Z,7.70
2023-04-20T07:46:11.536Z,7.78
2023-04-20T07:47:15.833Z,7.78
2023-04-20T07:48:20.198Z,7.71
2023-04-20T07:49:24.750Z,7.62
2023-04-20T07:51:02.036Z,7.58
2023-04-20T07:51:30.118Z,7.57
2023-04-20T07:52:33.947Z,7.44
2023-04-20T07:53:38.313Z,7.21
2023-04-20T07:54:38.634Z,7.26
2023-04-20T07:55:42.990Z,7.29
2023-04-20T07:56:47.103Z,7.27
2023-04-20T07:57:51.423Z,7.41
2023-04-20T07:58:55.779Z,7.50
2023-04-20T08:00:00.395Z,7.42
2023-04-20T08:01:04.901Z,7.59
2023-04-20T08:02:09.256Z,7.43
2023-04-20T08:03:13.771Z,7.60
2023-04-20T08:04:18.013Z,7.46
2023-04-20T08:05:22.159Z,7.39
2023-04-20T08:06:26.402Z,7.29
2023-04-20T08:07:30.769Z,7.10
2023-04-20T08:08:35.097Z,7.11
2023-04-20T08:09:39.447Z,7.08
2023-04-20T08:10:43.518Z,7.15
2023-04-20T08:11:48.422Z,7.23
2023-04-20T08:12:52.909Z,7.13
2023-04-20T08:13:58.437Z,7.19
2023-04-20T08:15:01.169Z,7.17
2023-04-20T08:16:05.515Z,7.23
2023-04-20T08:17:09.683Z,7.37
2023-04-20T08:18:14.152Z,7.54
2023-04-20T08:19:18.497Z,7.64
2023-04-20T08:20:23.078Z,7.85
2023-04-20T08:21:27.154Z,8.02
2023-04-20T08:22:31.230Z,8.04
2023-04-20T08:23:35.830Z,8.21
2023-04-20T08:24:35.947Z,7.95
2023-04-20T08:25:40.050Z,7.89
2023-04-20T08:26:44.362Z,7.81
2023-04-20T08:27:48.958Z,7.75
2023-04-20T08:28:53.027Z,7.73
2023-04-20T08:29:57.365Z,8.07
2023-04-20T08:31:01.850Z,8.44
2023-04-20T08:32:06.294Z,8.71
2023-04-20T08:33:10.779Z,8.79
2023-04-20T08:34:14.733Z,8.58
2023-04-20T08:35:19.309Z,8.59
2023-04-20T08:36:23.666Z,8.91
2023-04-20T08:37:27.732Z,8.88
2023-04-20T08:38:34.091Z,8.73
2023-04-20T08:39:36.673Z,8.60
2023-04-20T08:40:40.994Z,8.53
2023-04-20T08:41:45.340Z,8.40
2023-04-20T08:42:49.401Z,8.24
2023-04-20T08:43:56.772Z,8.23
2023-04-20T08:44:58.651Z,8.17
2023-04-20T08:45:57.755Z,8.28
2023-04-20T08:47:02.536Z,8.41
2023-04-20T08:48:06.507Z,8.53
2023-04-20T08:49:10.848Z,8.73
2023-04-20T08:50:15.392Z,8.59
2023-04-20T08:51:19.712Z,8.33
2023-04-20T08:52:24.285Z,8.01
2023-04-20T08:53:28.380Z,7.90
2023-04-20T08:54:28.768Z,7.80
2023-04-20T08:55:32.825Z,7.67
2023-04-20T08:56:37.501Z,7.86
2023-04-20T08:57:41.498Z,7.73
2023-04-20T08:58:45.840Z,7.75
2023-04-20T08:59:50.162Z,7.82
2023-04-20T09:00:54.511Z,7.87
2023-04-20T09:01:58.753Z,7.96
2023-04-20T09:03:03.137Z,7.97
2023-04-20T09:04:08.018Z,7.91
2023-04-20T09:05:12.285Z,7.92
2023-04-20T09:06:16.223Z,7.82
2023-04-20T09:07:20.547Z,7.77
2023-04-20T09:08:24.890Z,7.66
2023-04-20T09:09:29.215Z,7.83
2023-04-20T09:10:33.552Z,7.80
2023-04-20T09:11:37.904Z,7.73
2023-04-20T09:12:41.975Z,7.60
2023-04-20T09:13:46.879Z,7.49
2023-04-20T09:14:50.920Z,7.61
2023-04-20T09:15:55.372Z,7.73
2023-04-20T09:16:59.387Z,7.58
2023-04-20T09:18:04.085Z,7.67
2023-04-20T09:19:09.262Z,7.89
2023-04-20T09:20:12.690Z,8.19
2023-04-20T09:21:17.034Z,8.44
2023-04-20T09:22:21.572Z,8.72
2023-04-20T09:23:25.911Z,8.98
2023-04-20T09:24:26.086Z,9.04
2023-04-20T09:25:30.410Z,9.09
2023-04-20T09:26:34.495Z,8.90
2023-04-20T09:27:38.572Z,8.91
2023-04-20T09:28:43.172Z,8.95
2023-04-20T09:29:47.269Z,9.13
2023-04-20T09:30:54.253Z,9.33
2023-04-20T09:31:53.452Z,9.44
2023-04-20T09:32:57.741Z,9.30
2023-04-20T09:34:02.339Z,9.26
2023-04-20T09:35:06.930Z,9.29
2023-04-20T09:36:11.001Z,8.72
2023-04-20T09:37:15.380Z,8.83
2023-04-20T09:38:19.420Z,8.68
2023-04-20T09:39:23.794Z,8.69
2023-04-20T09:40:27.387Z,8.95
2023-04-20T09:41:32.462Z,8.98
2023-04-20T09:42:37.061Z,9.02
2023-04-20T09:43:47.890Z,8.97
2023-04-20T09:44:45.977Z,9.16
2023-04-20T09:45:50.429Z,9.18
2023-04-20T09:47:00.876Z,9.06
2023-04-20T09:47:58.843Z,9.18
2023-04-20T09:49:03.084Z,9.30
2023-04-20T09:50:22.740Z,9.36
2023-04-20T09:51:11.507Z,8.94
2023-04-20T09:52:15.852Z,8.72
2023-04-20T09:53:20.500Z,8.96
2023-04-20T09:54:21.422Z,9.10
2023-04-20T09:55:25.812Z,9.10
2023-04-20T09:56:30.541Z,8.84
2023-04-20T09:57:34.736Z,8.71
2023-04-20T09:58:38.813Z,8.59
2023-04-20T09:59:42.890Z,8.55
2023-04-20T10:00:47.591Z,8.72
2023-04-20T10:01:51.604Z,8.89
2023-04-20T10:02:56.283Z,9.14
2023-04-20T10:04:01.152Z,9.33
2023-04-20T10:05:04.868Z,9.25
2023-04-20T10:06:08.953Z,9.19
2023-04-20T10:07:13.285Z,8.90
2023-04-20T10:08:17.878Z,9.02
2023-04-20T10:09:22.254Z,9.15
2023-04-20T10:10:34.409Z,9.34
2023-04-20T10:11:40.578Z,9.57
2023-04-20T10:12:34.976Z,9.45
2023-04-20T10:13:39.821Z,9.48
2023-04-20T10:14:44.137Z,9.63
2023-04-20T10:15:47.994Z,9.57
2023-04-20T10:16:52.326Z,9.67
2023-04-20T10:17:56.987Z,9.96
2023-04-20T10:19:01.326Z,10.04
2023-04-20T10:20:05.595Z,9.98
2023-04-20T10:21:09.806Z,9.57
2023-04-20T10:22:17.364Z,9.66
2023-04-20T10:23:15.600Z,9.74
2023-04-20T10:24:20.356Z,9.97
2023-04-20T10:25:23.368Z,9.76
2023-04-20T10:26:27.658Z,9.74
2023-04-20T10:27:31.516Z,9.30
2023-04-20T10:28:35.843Z,9.19
2023-04-20T10:29:40.476Z,9.48
2023-04-20T10:30:44.541Z,9.78
2023-04-20T10:31:48.854Z,9.85
2023-04-20T10:32:53.499Z,9.73
2023-04-20T10:33:58.146Z,9.53
2023-04-20T10:35:02.398Z,9.75
2023-04-20T10:36:06.470Z,9.68
2023-04-20T10:37:10.546Z,9.82
2023-04-20T10:38:15.158Z,9.93
2023-04-20T10:39:19.917Z,9.80
2023-04-20T10:40:23.844Z,9.62
2023-04-20T10:41:27.907Z,9.79
2023-04-20T10:42:32.218Z,9.99
2023-04-20T10:43:37.076Z,10.23
2023-04-20T10:44:41.397Z,10.21
2023-04-20T10:45:45.495Z,10.31
2023-04-20T10:46:49.814Z,10.03
2023-04-20T10:47:53.983Z,10.25
2023-04-20T10:48:58.629Z,9.91
2023-04-20T10:50:02.973Z,10.22
2023-04-20T10:51:07.031Z,10.41
2023-04-20T10:52:11.885Z,10.39
2023-04-20T10:53:15.971Z,10.25
2023-04-20T10:54:18.247Z,10.18
2023-04-20T10:55:20.715Z,10.24
2023-04-20T10:56:24.535Z,10.43
2023-04-20T10:57:28.894Z,10.45
2023-04-20T10:58:33.197Z,10.37
2023-04-20T10:59:37.534Z,10.44
2023-04-20T11:00:41.900Z,10.49
2023-04-20T11:01:46.292Z,10.63
2023-04-20T11:02:50.908Z,10.58
2023-04-20T11:03:55.233Z,10.29
2023-04-20T11:04:59.793Z,10.15
2023-04-20T11:06:03.689Z,10.38
2023-04-20T11:07:08.160Z,10.71
2023-04-20T11:08:12.243Z,10.53
2023-04-20T11:09:16.766Z,10.69
2023-04-20T11:10:21.173Z,10.39
2023-04-20T11:11:25.252Z,10.49
2023-04-20T11:12:30.114Z,10.46
2023-04-20T11:13:34.486Z,10.45
2023-04-20T11:14:38.559Z,10.38
2023-04-20T11:15:42.617Z,10.38
2023-04-20T11:16:51.539Z,10.46
2023-04-20T11:17:51.392Z,10.23
2023-04-20T11:18:55.676Z,10.13
2023-04-20T11:20:00.276Z,10.40
2023-04-20T11:21:04.864Z,10.49
2023-04-20T11:22:08.975Z,11.06
2023-04-20T11:23:13.309Z,11.48
2023-04-20T11:24:13.709Z,11.70
2023-04-20T11:25:18.031Z,11.80
2023-04-20T11:26:22.142Z,11.77
2023-04-20T11:27:26.498Z,11.56
2023-04-20T11:28:30.843Z,11.51
2023-04-20T11:29:34.960Z,10.87
2023-04-20T11:30:39.790Z,10.58
2023-04-20T11:31:43.268Z,10.32
2023-04-20T11:32:45.532Z,10.25
2023-04-20T11:33:49.767Z,10.10
2023-04-20T11:35:06.584Z,10.33
2023-04-20T11:35:58.739Z,10.47
2023-04-20T11:37:02.816Z,10.49
2023-04-20T11:38:06.886Z,10.57
2023-04-20T11:39:11.220Z,10.67
2023-04-20T11:40:15.894Z,10.80
2023-04-20T11:41:19.892Z,10.87
2023-04-20T11:42:24.476Z,11.02
2023-04-20T11:43:28.560Z,11.22
2023-04-20T11:44:33.446Z,10.95
2023-04-20T11:45:37.949Z,10.90
2023-04-20T11:46:41.888Z,11.06
2023-04-20T11:47:46.079Z,10.92
2023-04-20T11:48:50.624Z,10.86
2023-04-20T11:49:54.961Z,10.70
2023-04-20T11:51:12.886Z,10.73
2023-04-20T11:52:01.695Z,10.86
2023-04-20T11:53:05.970Z,10.56
2023-04-20T11:54:11.837Z,10.39
2023-04-20T11:55:15.964Z,10.41
2023-04-20T11:56:20.047Z,10.54
2023-04-20T11:57:24.665Z,10.63
2023-04-20T11:58:28.766Z,10.58
2023-04-20T11:59:33.386Z,10.18
2023-04-20T12:00:37.497Z,10.11
2023-04-20T12:01:41.860Z,10.22
2023-04-20T12:02:46.561Z,10.48
2023-04-20T12:03:50.941Z,10.43
2023-04-20T12:04:55.015Z,10.19
2023-04-20T12:05:59.214Z,9.95
2023-04-20T12:07:03.585Z,10.01
2023-04-20T12:08:07.927Z,10.15
2023-04-20T12:09:12.269Z,10.18
2023-04-20T12:10:16.656Z,10.27
2023-04-20T12:11:21.248Z,9.89
2023-04-20T12:12:25.850Z,9.70
2023-04-20T12:13:29.941Z,9.85
2023-04-20T12:14:34.040Z,9.93
2023-04-20T12:15:38.659Z,10.04
2023-04-20T12:16:42.735Z,10.18
2023-04-20T12:17:47.567Z,10.44
2023-04-20T12:18:51.427Z,10.66
2023-04-20T12:19:56.019Z,10.57
2023-04-20T12:21:00.651Z,10.88
2023-04-20T12:22:04.711Z,10.86
2023-04-20T12:23:08.815Z,10.98
2023-04-20T12:24:14.199Z,10.75
2023-04-20T12:25:18.799Z,10.53
2023-04-20T12:26:34.589Z,10.54
2023-04-20T12:27:27.237Z,10.41
2023-04-20T12:28:32.112Z,10.23
2023-04-20T12:29:36.467Z,10.06
2023-04-20T12:30:40.562Z,10.14
2023-04-20T12:31:44.701Z,10.06
2023-04-20T12:32:49.333Z,10.21
2023-04-20T12:33:53.356Z,10.24
2023-04-20T12:34:57.711Z,10.33
2023-04-20T12:36:02.315Z,10.51
2023-04-20T12:37:06.686Z,10.39
2023-04-20T12:38:12.781Z,10.45
2023-04-20T12:39:15.636Z,10.22
2023-04-20T12:40:19.468Z,10.12
2023-04-20T12:41:23.860Z,10.09
2023-04-20T12:42:28.179Z,10.26
2023-04-20T12:43:32.613Z,10.36
2023-04-20T12:44:43.617Z,10.37
2023-04-20T12:45:41.218Z,10.40
2023-04-20T12:46:46.100Z,10.59
2023-04-20T12:47:50.700Z,10.59
2023-04-20T12:48:54.596Z,10.79
2023-04-20T12:49:58.616Z,11.09
2023-04-20T12:51:03.200Z,11.19
2023-04-20T12:52:08.223Z,11.27
2023-04-20T12:53:11.919Z,11.18
2023-04-20T12:54:17.879Z,11.09
2023-04-20T12:55:21.621Z,10.92
2023-04-20T12:56:26.237Z,10.94
2023-04-20T12:57:30.083Z,10.67
2023-04-20T12:58:34.433Z,10.72
2023-04-20T12:59:38.791Z,10.80
2023-04-20T13:00:43.235Z,10.85
2023-04-20T13:01:47.834Z,10.80
2023-04-20T13:02:51.967Z,10.63
2023-04-20T13:03:56.673Z,10.52
2023-04-20T13:05:01.141Z,10.71
2023-04-20T13:06:05.464Z,10.45
2023-04-20T13:07:09.575Z,10.64
2023-04-20T13:08:13.898Z,10.80
2023-04-20T13:09:14.869Z,10.69
2023-04-20T13:10:21.960Z,10.79
2023-04-20T13:11:27.345Z,11.03
2023-04-20T13:12:30.938Z,11.11
2023-04-20T13:13:35.306Z,11.20
2023-04-20T13:14:39.653Z,11.20
2023-04-20T13:15:44.007Z,11.20
2023-04-20T13:16:48.269Z,11.17
2023-04-20T13:17:52.756Z,11.33
2023-04-20T13:18:56.807Z,11.41
2023-04-20T13:20:01.414Z,11.42
2023-04-20T13:21:05.552Z,11.41
2023-04-20T13:22:10.810Z,11.57
2023-04-20T13:23:15.482Z,11.63
2023-04-20T13:24:20.003Z,11.55
2023-04-20T13:25:23.950Z,11.37
2023-04-20T13:26:28.303Z,11.39
2023-04-20T13:27:32.668Z,11.43
2023-04-20T13:28:37.319Z,11.20
2023-04-20T13:29:41.424Z,10.74
2023-04-20T13:30:45.769Z,10.79
2023-04-20T13:31:50.673Z,10.64
2023-04-20T13:32:54.832Z,10.59
2023-04-20T13:33:58.865Z,10.51
2023-04-20T13:35:03.491Z,10.47
2023-04-20T13:36:07.863Z,10.43
2023-04-20T13:37:11.981Z,10.58
2023-04-20T13:38:16.308Z,10.80
2023-04-20T13:39:20.712Z,10.55
2023-04-20T13:40:25.276Z,10.56
2023-04-20T13:41:29.628Z,10.58
2023-04-20T13:42:33.728Z,10.53
2023-04-20T13:43:38.347Z,10.78
2023-04-20T13:44:42.733Z,10.71
2023-04-20T13:45:46.826Z,10.73
2023-04-20T13:46:51.414Z,10.78
2023-04-20T13:47:55.595Z,10.96
2023-04-20T13:49:00.190Z,11.06
2023-04-20T13:50:04.804Z,11.20
2023-04-20T13:51:08.906Z,11.20
2023-04-20T13:52:13.267Z,11.10
2023-04-20T13:53:17.388Z,11.08
2023-04-20T13:54:26.043Z,10.97
2023-04-20T13:55:30.114Z,11.02
2023-04-20T13:56:34.704Z,11.09
2023-04-20T13:57:39.062Z,11.23
2023-04-20T13:58:43.154Z,11.36
2023-04-20T14:00:28.313Z,11.17
2023-04-20T14:01:27.718Z,11.22
2023-04-20T14:02:31.876Z,11.31
2023-04-20T14:03:35.910Z,11.14
2023-04-20T14:04:40.492Z,11.32
2023-04-20T14:05:44.576Z,11.59
2023-04-20T14:06:48.915Z,11.49
2023-04-20T14:07:53.271Z,11.55
2023-04-20T14:08:57.913Z,11.40